Ahsahka, Idaho
Current Conditions -  °F | °C
As of 9:56 AM on Sunday 23 Nov 2014 (Local Time) from KLWS Reporting Station
Broken Clouds Broken Clouds  
Wind Chill: 41°   Ceiling: 10000
Heat Index: 44°   Visibility: 10mi
Dew Point: 36°   Wind: 6mph
Humidity: 73%   Direction: 320°NW
Pressure: 30.18"   Gusts: NA
Location:  46.51°N, 116.35°W
Report Text: KLWS 231756Z 32005KT 10SM SCT080 BKN100 07/02 A3018 RMK AO2 SLP228 T00670022 10072 20028 55000 $
Loading
Personal Weather Stations






























Interactive Weather Map New forecast layout! Learn more

10-Day Weather Forecast

Advertisements
Track Severe Weather on mobile